This is the latest recevied weather packets stored in our database for station/object 9W2GDL-10. If no packets are shown the sender has not sent any weather packets the latest 10 day(s).
| Time | Temp. | Humidity | Pressure | Rain* | Wind** | Luminosity | Snow |
|---|---|---|---|---|---|---|---|
| 1787990204 | 33.33° C | 62% | 1010.2 hPa | - | - | - | - |
| 1787989603 | 33.33° C | 62% | 1010.2 hPa | - | - | - | - |
| 1787989002 | 33.33° C | 62% | 1010.2 hPa | - | - | - | - |
| 1787988401 | 33.33° C | 62% | 1010.3 hPa | - | - | - | - |
| 1787987801 | 33.33° C | 63% | 1010.5 hPa | - | - | - | - |
| 1787987200 | 32.78° C | 63% | 1010.7 hPa | - | - | - | - |
| 1787986599 | 32.22° C | 65% | 1010.7 hPa | - | - | - | - |
| 1787985998 | 30.56° C | 72% | 1010.9 hPa | - | - | - | - |
| 1787971065 | 32.22° C | 62% | 1013.5 hPa | - | - | - | - |
| 1787970464 | 32.22° C | 62% | 1013 hPa | - | - | - | - |
| 1787969863 | 32.22° C | 62% | 1013.5 hPa | - | - | - | - |
| 1787969261 | 32.22° C | 63% | 1012.8 hPa | - | - | - | - |
| 1787968660 | 32.22° C | 63% | 1013.2 hPa | - | - | - | - |
| 1787968060 | 32.78° C | 62% | 1012.6 hPa | - | - | - | - |
| 1787967459 | 32.78° C | 62% | 1012.6 hPa | - | - | - | - |
| 1787966858 | 33.33° C | 61% | 1012.2 hPa | - | - | - | - |
| 1787966257 | 33.33° C | 60% | 1011.8 hPa | - | - | - | - |
| 1787965656 | 33.33° C | 60% | 1011.5 hPa | - | - | - | - |
| 1787965055 | 32.78° C | 61% | 1011.7 hPa | - | - | - | - |
| 1787964455 | 32.78° C | 61% | 1011.3 hPa | - | - | - | - |
| 1787963854 | 31.11° C | 66% | 1011.2 hPa | - | - | - | - |
| 1787963253 | 31.11° C | 66% | 1011 hPa | - | - | - | - |
| 1787962652 | 31.11° C | 66% | 1011.2 hPa | - | - | - | - |
| 1787962051 | 32.22° C | 60% | 1011.4 hPa | - | - | - | - |
| 1787961450 | 32.22° C | 60% | 1010.9 hPa | - | - | - | - |
* Rain since midnight (hover to see other rain measurements)
** Current wind speed in m/s (hover to see current wind gust speed)